sensor_id;sensor_type;location;lat;lon;timestamp;P1;durP1;ratioP1;P2;durP2;ratioP2
18503;SDS011;9381;54.244;10.074;2023-04-15T00:02:49;14.17;;;10.03;;
18503;SDS011;9381;54.244;10.074;2023-04-15T00:07:49;13.48;;;10.02;;
18503;SDS011;9381;54.244;10.074;2023-04-15T00:12:50;14.73;;;10.77;;
18503;SDS011;9381;54.244;10.074;2023-04-15T00:17:51;13.90;;;10.10;;
18503;SDS011;9381;54.244;10.074;2023-04-15T00:22:51;15.03;;;10.27;;
18503;SDS011;9381;54.244;10.074;2023-04-15T00:27:52;15.47;;;11.00;;
18503;SDS011;9381;54.244;10.074;2023-04-15T00:32:52;15.80;;;10.40;;
18503;SDS011;9381;54.244;10.074;2023-04-15T00:37:53;14.60;;;10.35;;
18503;SDS011;9381;54.244;10.074;2023-04-15T00:42:53;17.13;;;11.37;;
18503;SDS011;9381;54.244;10.074;2023-04-15T00:47:54;15.20;;;11.67;;
18503;SDS011;9381;54.244;10.074;2023-04-15T00:52:54;15.80;;;11.23;;
18503;SDS011;9381;54.244;10.074;2023-04-15T00:57:55;16.75;;;11.88;;
18503;SDS011;9381;54.244;10.074;2023-04-15T01:02:56;16.27;;;11.57;;
18503;SDS011;9381;54.244;10.074;2023-04-15T01:07:56;16.43;;;11.90;;
18503;SDS011;9381;54.244;10.074;2023-04-15T01:12:57;15.97;;;11.43;;
18503;SDS011;9381;54.244;10.074;2023-04-15T01:18:01;15.73;;;11.20;;
18503;SDS011;9381;54.244;10.074;2023-04-15T01:23:02;23.13;;;12.73;;
18503;SDS011;9381;54.244;10.074;2023-04-15T01:28:02;16.00;;;11.43;;
18503;SDS011;9381;54.244;10.074;2023-04-15T01:33:03;19.83;;;13.10;;
18503;SDS011;9381;54.244;10.074;2023-04-15T01:38:05;18.95;;;12.43;;
18503;SDS011;9381;54.244;10.074;2023-04-15T01:43:07;19.43;;;13.00;;
18503;SDS011;9381;54.244;10.074;2023-04-15T01:48:08;24.73;;;14.53;;
18503;SDS011;9381;54.244;10.074;2023-04-15T01:53:08;24.23;;;15.37;;
18503;SDS011;9381;54.244;10.074;2023-04-15T01:58:09;26.35;;;16.75;;
18503;SDS011;9381;54.244;10.074;2023-04-15T02:03:09;31.27;;;16.85;;
18503;SDS011;9381;54.244;10.074;2023-04-15T02:08:09;32.10;;;17.90;;
18503;SDS011;9381;54.244;10.074;2023-04-15T02:13:10;31.90;;;18.03;;
18503;SDS011;9381;54.244;10.074;2023-04-15T02:18:10;34.45;;;19.85;;
18503;SDS011;9381;54.244;10.074;2023-04-15T02:23:10;37.78;;;19.75;;
18503;SDS011;9381;54.244;10.074;2023-04-15T02:28:10;35.60;;;19.25;;
18503;SDS011;9381;54.244;10.074;2023-04-15T02:33:11;39.20;;;20.53;;
18503;SDS011;9381;54.244;10.074;2023-04-15T02:38:11;42.17;;;21.93;;
18503;SDS011;9381;54.244;10.074;2023-04-15T02:43:13;41.67;;;23.17;;
18503;SDS011;9381;54.244;10.074;2023-04-15T02:48:13;44.08;;;23.13;;
18503;SDS011;9381;54.244;10.074;2023-04-15T02:53:13;44.07;;;22.43;;
18503;SDS011;9381;54.244;10.074;2023-04-15T02:58:14;41.47;;;23.43;;
18503;SDS011;9381;54.244;10.074;2023-04-15T03:03:14;38.37;;;22.33;;
18503;SDS011;9381;54.244;10.074;2023-04-15T03:08:15;39.23;;;22.17;;
18503;SDS011;9381;54.244;10.074;2023-04-15T03:13:15;34.05;;;20.50;;
18503;SDS011;9381;54.244;10.074;2023-04-15T03:18:15;35.67;;;20.52;;
18503;SDS011;9381;54.244;10.074;2023-04-15T03:23:16;35.70;;;21.55;;
18503;SDS011;9381;54.244;10.074;2023-04-15T03:28:16;37.47;;;21.80;;
18503;SDS011;9381;54.244;10.074;2023-04-15T03:33:16;41.38;;;21.88;;
18503;SDS011;9381;54.244;10.074;2023-04-15T03:38:17;40.97;;;21.92;;
18503;SDS011;9381;54.244;10.074;2023-04-15T03:43:17;38.00;;;21.93;;
18503;SDS011;9381;54.244;10.074;2023-04-15T03:48:18;39.25;;;22.60;;
18503;SDS011;9381;54.244;10.074;2023-04-15T03:53:18;44.90;;;24.25;;
18503;SDS011;9381;54.244;10.074;2023-04-15T03:58:20;43.87;;;25.50;;
18503;SDS011;9381;54.244;10.074;2023-04-15T04:03:20;48.23;;;26.53;;
18503;SDS011;9381;54.244;10.074;2023-04-15T04:08:20;49.95;;;27.15;;
18503;SDS011;9381;54.244;10.074;2023-04-15T04:13:21;44.50;;;27.53;;
18503;SDS011;9381;54.244;10.074;2023-04-15T04:18:21;50.10;;;28.88;;
18503;SDS011;9381;54.244;10.074;2023-04-15T04:23:21;54.63;;;29.43;;
18503;SDS011;9381;54.244;10.074;2023-04-15T04:28:22;46.53;;;27.97;;
18503;SDS011;9381;54.244;10.074;2023-04-15T04:33:22;53.87;;;30.50;;
18503;SDS011;9381;54.244;10.074;2023-04-15T04:38:22;62.00;;;32.70;;
18503;SDS011;9381;54.244;10.074;2023-04-15T04:43:22;54.88;;;32.47;;
18503;SDS011;9381;54.244;10.074;2023-04-15T04:48:23;53.45;;;32.05;;
18503;SDS011;9381;54.244;10.074;2023-04-15T04:53:23;60.92;;;35.67;;
18503;SDS011;9381;54.244;10.074;2023-04-15T04:58:23;61.40;;;36.72;;
18503;SDS011;9381;54.244;10.074;2023-04-15T05:03:24;65.30;;;37.10;;
18503;SDS011;9381;54.244;10.074;2023-04-15T05:08:24;57.73;;;35.53;;
18503;SDS011;9381;54.244;10.074;2023-04-15T05:13:24;65.25;;;38.78;;
18503;SDS011;9381;54.244;10.074;2023-04-15T05:18:25;66.77;;;39.40;;
18503;SDS011;9381;54.244;10.074;2023-04-15T05:23:25;66.30;;;39.17;;
18503;SDS011;9381;54.244;10.074;2023-04-15T05:28:26;63.87;;;38.77;;
18503;SDS011;9381;54.244;10.074;2023-04-15T05:33:26;67.60;;;39.57;;
18503;SDS011;9381;54.244;10.074;2023-04-15T05:38:26;73.93;;;41.33;;
18503;SDS011;9381;54.244;10.074;2023-04-15T05:43:27;69.32;;;41.85;;
18503;SDS011;9381;54.244;10.074;2023-04-15T05:48:27;69.30;;;41.47;;
18503;SDS011;9381;54.244;10.074;2023-04-15T05:53:27;67.10;;;41.20;;
18503;SDS011;9381;54.244;10.074;2023-04-15T05:58:28;74.37;;;42.27;;
18503;SDS011;9381;54.244;10.074;2023-04-15T06:03:28;71.40;;;43.47;;
18503;SDS011;9381;54.244;10.074;2023-04-15T06:08:29;76.40;;;44.10;;
18503;SDS011;9381;54.244;10.074;2023-04-15T06:13:29;78.63;;;44.60;;
18503;SDS011;9381;54.244;10.074;2023-04-15T06:18:29;76.90;;;45.58;;
18503;SDS011;9381;54.244;10.074;2023-04-15T06:23:30;74.90;;;44.63;;
18503;SDS011;9381;54.244;10.074;2023-04-15T06:28:32;76.37;;;44.87;;
18503;SDS011;9381;54.244;10.074;2023-04-15T06:33:33;80.63;;;45.60;;
18503;SDS011;9381;54.244;10.074;2023-04-15T06:38:33;83.60;;;46.37;;
18503;SDS011;9381;54.244;10.074;2023-04-15T06:43:34;72.93;;;44.27;;
18503;SDS011;9381;54.244;10.074;2023-04-15T06:48:34;81.38;;;44.17;;
18503;SDS011;9381;54.244;10.074;2023-04-15T06:53:34;75.03;;;43.30;;
18503;SDS011;9381;54.244;10.074;2023-04-15T06:58:39;67.07;;;42.53;;
18503;SDS011;9381;54.244;10.074;2023-04-15T07:03:40;79.47;;;43.13;;
18503;SDS011;9381;54.244;10.074;2023-04-15T07:08:40;72.17;;;42.03;;
18503;SDS011;9381;54.244;10.074;2023-04-15T07:13:41;70.63;;;42.73;;
18503;SDS011;9381;54.244;10.074;2023-04-15T07:18:42;65.90;;;40.90;;
18503;SDS011;9381;54.244;10.074;2023-04-15T07:23:42;62.43;;;39.17;;
18503;SDS011;9381;54.244;10.074;2023-04-15T07:28:42;62.40;;;37.33;;
18503;SDS011;9381;54.244;10.074;2023-04-15T07:33:43;60.63;;;39.13;;
18503;SDS011;9381;54.244;10.074;2023-04-15T07:38:44;59.73;;;37.37;;
18503;SDS011;9381;54.244;10.074;2023-04-15T07:43:44;60.13;;;37.80;;
18503;SDS011;9381;54.244;10.074;2023-04-15T07:48:45;62.05;;;40.92;;
18503;SDS011;9381;54.244;10.074;2023-04-15T07:53:45;57.90;;;39.23;;
18503;SDS011;9381;54.244;10.074;2023-04-15T07:58:47;63.00;;;38.13;;
18503;SDS011;9381;54.244;10.074;2023-04-15T08:03:47;58.08;;;37.40;;
18503;SDS011;9381;54.244;10.074;2023-04-15T08:08:48;58.50;;;37.53;;
18503;SDS011;9381;54.244;10.074;2023-04-15T08:13:48;61.25;;;37.35;;
18503;SDS011;9381;54.244;10.074;2023-04-15T08:18:49;57.05;;;37.40;;
18503;SDS011;9381;54.244;10.074;2023-04-15T08:23:51;56.53;;;35.83;;
18503;SDS011;9381;54.244;10.074;2023-04-15T08:28:52;55.73;;;35.50;;
18503;SDS011;9381;54.244;10.074;2023-04-15T08:33:52;62.70;;;37.50;;
18503;SDS011;9381;54.244;10.074;2023-04-15T08:38:53;50.73;;;34.23;;
18503;SDS011;9381;54.244;10.074;2023-04-15T08:43:58;54.67;;;35.70;;
18503;SDS011;9381;54.244;10.074;2023-04-15T08:49:03;54.73;;;36.23;;
18503;SDS011;9381;54.244;10.074;2023-04-15T08:54:04;52.60;;;36.43;;
18503;SDS011;9381;54.244;10.074;2023-04-15T08:59:05;50.80;;;34.97;;
18503;SDS011;9381;54.244;10.074;2023-04-15T09:04:06;52.53;;;35.63;;
18503;SDS011;9381;54.244;10.074;2023-04-15T09:09:15;49.47;;;34.53;;
18503;SDS011;9381;54.244;10.074;2023-04-15T09:14:31;48.90;;;34.43;;
18503;SDS011;9381;54.244;10.074;2023-04-15T09:19:32;49.40;;;34.23;;
18503;SDS011;9381;54.244;10.074;2023-04-15T09:24:35;47.43;;;33.60;;
18503;SDS011;9381;54.244;10.074;2023-04-15T09:29:38;43.27;;;33.03;;
18503;SDS011;9381;54.244;10.074;2023-04-15T09:34:41;46.67;;;31.03;;
18503;SDS011;9381;54.244;10.074;2023-04-15T09:39:45;44.50;;;31.60;;
18503;SDS011;9381;54.244;10.074;2023-04-15T09:44:50;43.20;;;32.03;;
18503;SDS011;9381;54.244;10.074;2023-04-15T09:49:55;40.97;;;28.73;;
18503;SDS011;9381;54.244;10.074;2023-04-15T09:54:57;38.93;;;30.80;;
18503;SDS011;9381;54.244;10.074;2023-04-15T09:59:58;37.73;;;27.87;;
18503;SDS011;9381;54.244;10.074;2023-04-15T10:04:58;33.57;;;27.27;;
18503;SDS011;9381;54.244;10.074;2023-04-15T10:10:00;36.87;;;27.80;;
18503;SDS011;9381;54.244;10.074;2023-04-15T10:15:03;34.33;;;25.83;;
18503;SDS011;9381;54.244;10.074;2023-04-15T10:20:04;35.10;;;26.10;;
18503;SDS011;9381;54.244;10.074;2023-04-15T10:25:06;29.97;;;22.33;;
18503;SDS011;9381;54.244;10.074;2023-04-15T10:30:06;27.43;;;23.13;;
18503;SDS011;9381;54.244;10.074;2023-04-15T10:35:08;28.73;;;22.40;;
18503;SDS011;9381;54.244;10.074;2023-04-15T10:40:22;27.30;;;22.90;;
18503;SDS011;9381;54.244;10.074;2023-04-15T10:45:32;27.40;;;22.17;;
18503;SDS011;9381;54.244;10.074;2023-04-15T10:50:34;24.83;;;21.80;;
18503;SDS011;9381;54.244;10.074;2023-04-15T10:55:36;26.77;;;22.00;;
18503;SDS011;9381;54.244;10.074;2023-04-15T11:00:36;27.55;;;22.17;;
18503;SDS011;9381;54.244;10.074;2023-04-15T11:15:41;28.67;;;22.50;;
18503;SDS011;9381;54.244;10.074;2023-04-15T11:20:48;29.47;;;21.87;;
18503;SDS011;9381;54.244;10.074;2023-04-15T11:25:50;22.93;;;20.53;;
18503;SDS011;9381;54.244;10.074;2023-04-15T11:30:50;27.03;;;19.97;;
18503;SDS011;9381;54.244;10.074;2023-04-15T11:35:51;27.00;;;22.07;;
18503;SDS011;9381;54.244;10.074;2023-04-15T11:40:55;22.73;;;20.33;;
18503;SDS011;9381;54.244;10.074;2023-04-15T11:45:56;26.90;;;22.40;;
18503;SDS011;9381;54.244;10.074;2023-04-15T11:56:02;29.53;;;23.93;;
18503;SDS011;9381;54.244;10.074;2023-04-15T12:01:03;32.33;;;24.83;;
18503;SDS011;9381;54.244;10.074;2023-04-15T12:06:12;31.00;;;25.50;;
18503;SDS011;9381;54.244;10.074;2023-04-15T12:16:31;34.03;;;25.90;;
18503;SDS011;9381;54.244;10.074;2023-04-15T12:21:34;29.70;;;25.63;;
18503;SDS011;9381;54.244;10.074;2023-04-15T12:31:43;30.50;;;23.10;;
18503;SDS011;9381;54.244;10.074;2023-04-15T12:36:46;27.40;;;23.67;;
18503;SDS011;9381;54.244;10.074;2023-04-15T12:41:46;31.90;;;24.73;;
18503;SDS011;9381;54.244;10.074;2023-04-15T12:46:47;35.43;;;26.67;;
18503;SDS011;9381;54.244;10.074;2023-04-15T12:51:47;30.05;;;25.77;;
18503;SDS011;9381;54.244;10.074;2023-04-15T12:56:49;29.77;;;23.50;;
18503;SDS011;9381;54.244;10.074;2023-04-15T13:01:50;31.97;;;25.60;;
18503;SDS011;9381;54.244;10.074;2023-04-15T13:06:52;31.17;;;25.30;;
18503;SDS011;9381;54.244;10.074;2023-04-15T13:11:52;28.77;;;24.97;;
18503;SDS011;9381;54.244;10.074;2023-04-15T13:16:53;32.07;;;26.40;;
18503;SDS011;9381;54.244;10.074;2023-04-15T13:21:53;32.17;;;25.70;;
18503;SDS011;9381;54.244;10.074;2023-04-15T13:26:54;30.10;;;25.40;;
18503;SDS011;9381;54.244;10.074;2023-04-15T13:31:55;27.70;;;24.33;;
18503;SDS011;9381;54.244;10.074;2023-04-15T13:36:55;29.20;;;23.27;;
18503;SDS011;9381;54.244;10.074;2023-04-15T13:41:55;31.67;;;23.88;;
18503;SDS011;9381;54.244;10.074;2023-04-15T13:46:56;27.13;;;23.03;;
18503;SDS011;9381;54.244;10.074;2023-04-15T13:51:56;23.73;;;21.00;;
18503;SDS011;9381;54.244;10.074;2023-04-15T13:56:57;28.15;;;24.25;;
18503;SDS011;9381;54.244;10.074;2023-04-15T14:01:57;28.17;;;24.20;;
18503;SDS011;9381;54.244;10.074;2023-04-15T14:06:57;30.13;;;23.70;;
18503;SDS011;9381;54.244;10.074;2023-04-15T14:11:58;32.17;;;23.17;;
18503;SDS011;9381;54.244;10.074;2023-04-15T14:16:59;27.47;;;22.67;;
18503;SDS011;9381;54.244;10.074;2023-04-15T14:21:59;29.23;;;23.53;;
18503;SDS011;9381;54.244;10.074;2023-04-15T14:26:59;30.07;;;24.17;;
18503;SDS011;9381;54.244;10.074;2023-04-15T14:32:01;28.87;;;23.80;;
18503;SDS011;9381;54.244;10.074;2023-04-15T14:37:01;29.80;;;24.07;;
18503;SDS011;9381;54.244;10.074;2023-04-15T14:42:03;26.57;;;22.17;;
18503;SDS011;9381;54.244;10.074;2023-04-15T14:47:03;31.43;;;23.07;;
18503;SDS011;9381;54.244;10.074;2023-04-15T14:52:04;28.67;;;23.23;;
18503;SDS011;9381;54.244;10.074;2023-04-15T14:57:05;27.27;;;22.45;;
18503;SDS011;9381;54.244;10.074;2023-04-15T15:02:05;28.37;;;22.23;;
18503;SDS011;9381;54.244;10.074;2023-04-15T15:07:06;28.57;;;23.20;;
18503;SDS011;9381;54.244;10.074;2023-04-15T15:12:06;27.90;;;21.40;;
18503;SDS011;9381;54.244;10.074;2023-04-15T15:17:06;27.98;;;21.77;;
18503;SDS011;9381;54.244;10.074;2023-04-15T15:22:08;27.53;;;20.87;;
18503;SDS011;9381;54.244;10.074;2023-04-15T15:27:09;25.63;;;22.27;;
18503;SDS011;9381;54.244;10.074;2023-04-15T15:32:09;26.23;;;20.93;;
18503;SDS011;9381;54.244;10.074;2023-04-15T15:37:09;27.95;;;22.00;;
18503;SDS011;9381;54.244;10.074;2023-04-15T15:42:10;24.97;;;20.80;;
18503;SDS011;9381;54.244;10.074;2023-04-15T15:47:10;25.47;;;21.70;;
18503;SDS011;9381;54.244;10.074;2023-04-15T15:52:11;29.00;;;23.25;;
18503;SDS011;9381;54.244;10.074;2023-04-15T15:57:11;28.27;;;22.17;;
18503;SDS011;9381;54.244;10.074;2023-04-15T16:02:12;35.10;;;25.38;;
18503;SDS011;9381;54.244;10.074;2023-04-15T16:07:15;30.37;;;22.37;;
18503;SDS011;9381;54.244;10.074;2023-04-15T16:12:15;30.17;;;22.47;;
18503;SDS011;9381;54.244;10.074;2023-04-15T16:17:16;32.07;;;24.60;;
18503;SDS011;9381;54.244;10.074;2023-04-15T16:22:16;29.17;;;22.83;;
18503;SDS011;9381;54.244;10.074;2023-04-15T16:27:16;31.43;;;23.27;;
18503;SDS011;9381;54.244;10.074;2023-04-15T16:32:16;31.05;;;24.40;;
18503;SDS011;9381;54.244;10.074;2023-04-15T16:37:17;32.63;;;23.97;;
18503;SDS011;9381;54.244;10.074;2023-04-15T16:42:19;30.97;;;23.43;;
18503;SDS011;9381;54.244;10.074;2023-04-15T16:47:19;28.43;;;23.30;;
18503;SDS011;9381;54.244;10.074;2023-04-15T16:52:20;26.20;;;22.63;;
18503;SDS011;9381;54.244;10.074;2023-04-15T16:57:20;29.40;;;23.67;;
18503;SDS011;9381;54.244;10.074;2023-04-15T17:02:20;27.80;;;21.65;;
18503;SDS011;9381;54.244;10.074;2023-04-15T17:07:21;27.08;;;21.20;;
18503;SDS011;9381;54.244;10.074;2023-04-15T17:12:21;24.80;;;20.85;;
18503;SDS011;9381;54.244;10.074;2023-04-15T17:17:21;24.88;;;21.25;;
18503;SDS011;9381;54.244;10.074;2023-04-15T17:22:21;29.77;;;21.60;;
18503;SDS011;9381;54.244;10.074;2023-04-15T17:27:22;31.63;;;22.10;;
18503;SDS011;9381;54.244;10.074;2023-04-15T17:32:24;29.70;;;22.80;;
18503;SDS011;9381;54.244;10.074;2023-04-15T17:37:31;28.97;;;22.07;;
18503;SDS011;9381;54.244;10.074;2023-04-15T17:42:34;29.67;;;20.43;;
18503;SDS011;9381;54.244;10.074;2023-04-15T17:47:34;29.83;;;20.52;;
18503;SDS011;9381;54.244;10.074;2023-04-15T17:52:34;31.85;;;21.23;;
18503;SDS011;9381;54.244;10.074;2023-04-15T17:57:35;26.07;;;19.13;;
18503;SDS011;9381;54.244;10.074;2023-04-15T18:02:35;25.30;;;19.50;;
18503;SDS011;9381;54.244;10.074;2023-04-15T18:07:35;26.10;;;18.87;;
18503;SDS011;9381;54.244;10.074;2023-04-15T18:12:36;27.47;;;19.67;;
18503;SDS011;9381;54.244;10.074;2023-04-15T18:17:36;26.33;;;18.93;;
18503;SDS011;9381;54.244;10.074;2023-04-15T18:22:37;26.23;;;19.92;;
18503;SDS011;9381;54.244;10.074;2023-04-15T18:27:37;28.87;;;19.90;;
18503;SDS011;9381;54.244;10.074;2023-04-15T18:32:38;26.37;;;19.27;;
18503;SDS011;9381;54.244;10.074;2023-04-15T18:37:38;27.38;;;18.98;;
18503;SDS011;9381;54.244;10.074;2023-04-15T18:42:39;28.70;;;22.20;;
18503;SDS011;9381;54.244;10.074;2023-04-15T18:47:39;34.87;;;24.63;;
18503;SDS011;9381;54.244;10.074;2023-04-15T18:52:39;26.77;;;20.63;;
18503;SDS011;9381;54.244;10.074;2023-04-15T18:57:40;28.35;;;20.83;;
18503;SDS011;9381;54.244;10.074;2023-04-15T19:02:43;27.03;;;20.30;;
18503;SDS011;9381;54.244;10.074;2023-04-15T19:07:44;25.87;;;20.73;;
18503;SDS011;9381;54.244;10.074;2023-04-15T19:12:44;27.83;;;20.03;;
18503;SDS011;9381;54.244;10.074;2023-04-15T19:17:44;25.08;;;18.63;;
18503;SDS011;9381;54.244;10.074;2023-04-15T19:22:45;29.50;;;19.67;;
18503;SDS011;9381;54.244;10.074;2023-04-15T19:27:45;26.80;;;20.33;;
18503;SDS011;9381;54.244;10.074;2023-04-15T19:32:46;34.88;;;23.58;;
18503;SDS011;9381;54.244;10.074;2023-04-15T19:37:46;26.75;;;18.92;;
18503;SDS011;9381;54.244;10.074;2023-04-15T19:42:46;26.70;;;18.47;;
18503;SDS011;9381;54.244;10.074;2023-04-15T19:47:46;29.75;;;18.35;;
18503;SDS011;9381;54.244;10.074;2023-04-15T19:52:47;24.57;;;18.30;;
18503;SDS011;9381;54.244;10.074;2023-04-15T19:57:47;25.85;;;19.33;;
18503;SDS011;9381;54.244;10.074;2023-04-15T20:02:47;27.35;;;19.15;;
18503;SDS011;9381;54.244;10.074;2023-04-15T20:07:48;25.50;;;18.90;;
18503;SDS011;9381;54.244;10.074;2023-04-15T20:12:51;27.67;;;19.73;;
18503;SDS011;9381;54.244;10.074;2023-04-15T20:17:52;29.13;;;19.05;;
18503;SDS011;9381;54.244;10.074;2023-04-15T20:22:52;28.63;;;19.20;;
18503;SDS011;9381;54.244;10.074;2023-04-15T20:27:52;26.97;;;19.40;;
18503;SDS011;9381;54.244;10.074;2023-04-15T20:32:52;30.33;;;19.38;;
18503;SDS011;9381;54.244;10.074;2023-04-15T20:37:53;27.60;;;19.15;;
18503;SDS011;9381;54.244;10.074;2023-04-15T20:42:53;30.40;;;20.08;;
18503;SDS011;9381;54.244;10.074;2023-04-15T20:47:53;38.83;;;23.60;;
18503;SDS011;9381;54.244;10.074;2023-04-15T20:52:54;24.60;;;19.03;;
18503;SDS011;9381;54.244;10.074;2023-04-15T20:57:55;27.77;;;18.58;;
18503;SDS011;9381;54.244;10.074;2023-04-15T21:02:55;26.23;;;19.17;;
18503;SDS011;9381;54.244;10.074;2023-04-15T21:07:56;23.85;;;18.33;;
18503;SDS011;9381;54.244;10.074;2023-04-15T21:12:56;25.05;;;19.63;;
18503;SDS011;9381;54.244;10.074;2023-04-15T21:17:56;25.98;;;17.75;;
18503;SDS011;9381;54.244;10.074;2023-04-15T21:22:56;26.80;;;19.25;;
18503;SDS011;9381;54.244;10.074;2023-04-15T21:27:57;29.08;;;19.13;;
18503;SDS011;9381;54.244;10.074;2023-04-15T21:32:57;26.67;;;19.65;;
18503;SDS011;9381;54.244;10.074;2023-04-15T21:37:57;32.38;;;20.88;;
18503;SDS011;9381;54.244;10.074;2023-04-15T21:42:57;25.88;;;18.80;;
18503;SDS011;9381;54.244;10.074;2023-04-15T21:47:58;28.20;;;20.10;;
18503;SDS011;9381;54.244;10.074;2023-04-15T21:52:58;26.85;;;19.42;;
18503;SDS011;9381;54.244;10.074;2023-04-15T21:57:58;27.90;;;18.45;;
18503;SDS011;9381;54.244;10.074;2023-04-15T22:02:59;30.07;;;20.93;;
18503;SDS011;9381;54.244;10.074;2023-04-15T22:07:59;26.20;;;19.80;;
18503;SDS011;9381;54.244;10.074;2023-04-15T22:13:03;27.67;;;20.03;;
18503;SDS011;9381;54.244;10.074;2023-04-15T22:18:07;28.37;;;20.93;;
18503;SDS011;9381;54.244;10.074;2023-04-15T22:23:07;30.53;;;20.47;;
18503;SDS011;9381;54.244;10.074;2023-04-15T22:28:08;30.60;;;20.30;;
18503;SDS011;9381;54.244;10.074;2023-04-15T22:33:09;28.03;;;20.83;;
18503;SDS011;9381;54.244;10.074;2023-04-15T22:38:09;28.03;;;21.37;;
18503;SDS011;9381;54.244;10.074;2023-04-15T22:43:10;33.80;;;21.63;;
18503;SDS011;9381;54.244;10.074;2023-04-15T22:48:10;30.27;;;21.07;;
18503;SDS011;9381;54.244;10.074;2023-04-15T22:53:10;26.67;;;20.70;;
18503;SDS011;9381;54.244;10.074;2023-04-15T22:58:11;26.70;;;20.33;;
18503;SDS011;9381;54.244;10.074;2023-04-15T23:03:11;29.43;;;20.50;;
18503;SDS011;9381;54.244;10.074;2023-04-15T23:08:12;31.88;;;21.73;;
18503;SDS011;9381;54.244;10.074;2023-04-15T23:13:12;28.95;;;21.50;;
18503;SDS011;9381;54.244;10.074;2023-04-15T23:18:12;29.50;;;23.20;;
18503;SDS011;9381;54.244;10.074;2023-04-15T23:23:12;33.65;;;22.20;;
18503;SDS011;9381;54.244;10.074;2023-04-15T23:28:13;33.60;;;22.80;;
18503;SDS011;9381;54.244;10.074;2023-04-15T23:33:13;29.50;;;21.58;;
18503;SDS011;9381;54.244;10.074;2023-04-15T23:38:13;30.77;;;20.43;;
18503;SDS011;9381;54.244;10.074;2023-04-15T23:43:13;30.48;;;21.25;;
18503;SDS011;9381;54.244;10.074;2023-04-15T23:48:14;27.67;;;21.00;;
18503;SDS011;9381;54.244;10.074;2023-04-15T23:53:14;28.43;;;21.80;;
18503;SDS011;9381;54.244;10.074;2023-04-15T23:58:15;24.27;;;20.13;;
